createdAt,value
2018-03-28T00:01:21.431Z,6.80
2018-03-28T00:03:49.076Z,6.80
2018-03-28T00:06:16.902Z,6.80
2018-03-28T00:08:44.478Z,6.80
2018-03-28T00:11:12.030Z,6.80
2018-03-28T00:13:39.596Z,6.80
2018-03-28T00:16:07.890Z,6.80
2018-03-28T00:18:35.486Z,6.70
2018-03-28T00:21:03.114Z,6.70
2018-03-28T00:23:30.894Z,6.70
2018-03-28T00:25:58.620Z,6.70
2018-03-28T00:28:26.180Z,6.70
2018-03-28T00:30:53.844Z,6.70
2018-03-28T00:33:21.415Z,6.60
2018-03-28T00:35:48.963Z,6.60
2018-03-28T00:38:16.596Z,6.60
2018-03-28T00:40:44.395Z,6.60
2018-03-28T00:43:11.958Z,6.50
2018-03-28T00:45:39.581Z,6.50
2018-03-28T00:48:07.149Z,6.50
2018-03-28T00:50:34.718Z,6.40
2018-03-28T00:53:02.278Z,6.40
2018-03-28T00:55:30.056Z,6.40
2018-03-28T00:57:57.611Z,6.30
2018-03-28T01:00:25.262Z,6.30
2018-03-28T01:02:52.821Z,6.30
2018-03-28T01:05:20.395Z,6.30
2018-03-28T01:07:48.715Z,6.20
2018-03-28T01:10:16.271Z,6.20
2018-03-28T01:12:43.837Z,6.20
2018-03-28T01:15:12.520Z,6.20
2018-03-28T01:17:40.130Z,6.20
2018-03-28T01:20:07.670Z,6.20
2018-03-28T01:22:35.249Z,6.20
2018-03-28T01:25:02.818Z,6.20
2018-03-28T01:27:30.501Z,6.20
2018-03-28T01:29:58.161Z,6.20
2018-03-28T01:32:25.928Z,6.20
2018-03-28T01:34:53.555Z,6.10
2018-03-28T01:37:21.211Z,6.10
2018-03-28T01:39:48.975Z,6.10
2018-03-28T01:42:16.525Z,6.10
2018-03-28T01:44:44.195Z,6.10
2018-03-28T01:47:11.963Z,6.10
2018-03-28T01:49:39.625Z,6.00
2018-03-28T01:52:07.213Z,6.00
2018-03-28T01:54:34.781Z,6.00
2018-03-28T01:57:02.475Z,6.00
2018-03-28T01:59:30.115Z,6.00
2018-03-28T02:01:57.700Z,6.00
2018-03-28T02:04:25.538Z,6.00
2018-03-28T02:06:53.193Z,6.00
2018-03-28T02:09:20.780Z,5.90
2018-03-28T02:11:48.360Z,5.90
2018-03-28T02:14:16.711Z,5.80
2018-03-28T02:16:44.271Z,5.80
2018-03-28T02:22:05.354Z,5.80
2018-03-28T02:24:32.928Z,5.80
2018-03-28T02:27:00.495Z,5.70
2018-03-28T02:29:28.029Z,5.70
2018-03-28T02:31:56.334Z,5.70
2018-03-28T02:34:23.819Z,5.70
2018-03-28T02:36:51.361Z,5.70
2018-03-28T02:39:18.968Z,5.70
2018-03-28T02:41:46.490Z,5.70
2018-03-28T02:44:14.000Z,5.70
2018-03-28T02:46:41.512Z,5.70
2018-03-28T02:49:09.016Z,5.70
2018-03-28T02:51:36.498Z,5.70
2018-03-28T02:54:04.006Z,5.70
2018-03-28T02:56:31.535Z,5.70
2018-03-28T02:58:59.039Z,5.70
2018-03-28T03:01:26.534Z,5.70
2018-03-28T03:03:54.062Z,5.70
2018-03-28T03:06:22.382Z,5.70
2018-03-28T03:08:49.873Z,5.70
2018-03-28T03:11:17.404Z,5.80
2018-03-28T03:13:44.920Z,5.80
2018-03-28T03:16:12.382Z,5.80
2018-03-28T03:18:39.938Z,5.80
2018-03-28T03:21:07.452Z,5.80
2018-03-28T03:23:35.767Z,5.80
2018-03-28T03:26:04.109Z,5.70
2018-03-28T03:28:31.602Z,5.70
2018-03-28T03:30:59.911Z,5.70
2018-03-28T03:33:27.390Z,5.70
2018-03-28T03:35:54.897Z,5.70
2018-03-28T03:38:22.376Z,5.80
2018-03-28T03:40:49.878Z,5.80
2018-03-28T03:43:18.131Z,5.70
2018-03-28T03:45:46.142Z,5.70
2018-03-28T03:48:13.702Z,5.80
2018-03-28T03:50:41.166Z,5.80
2018-03-28T03:53:08.658Z,5.70
2018-03-28T03:55:36.174Z,5.70
2018-03-28T03:58:03.668Z,5.80
2018-03-28T04:00:31.161Z,5.80
2018-03-28T04:02:59.417Z,5.80
2018-03-28T04:05:27.006Z,5.70
2018-03-28T04:07:54.491Z,5.80
2018-03-28T04:10:21.998Z,5.80
2018-03-28T04:12:50.311Z,5.80
2018-03-28T04:15:17.871Z,5.80
2018-03-28T04:17:45.363Z,5.80
2018-03-28T04:20:12.875Z,5.80
2018-03-28T04:22:40.383Z,5.80
2018-03-28T04:25:07.870Z,5.90
2018-03-28T04:27:35.437Z,5.90
2018-03-28T04:30:02.958Z,5.80
2018-03-28T04:32:31.243Z,5.80
2018-03-28T04:34:59.532Z,5.90
2018-03-28T04:37:27.063Z,5.90
2018-03-28T04:39:54.553Z,5.90
2018-03-28T04:42:22.069Z,5.90
2018-03-28T04:44:49.576Z,5.90
2018-03-28T04:47:17.835Z,6.00
2018-03-28T04:49:45.357Z,5.90
2018-03-28T04:52:12.849Z,6.00
2018-03-28T04:54:40.323Z,6.00
2018-03-28T04:57:07.840Z,6.00
2018-03-28T04:59:36.115Z,6.00
2018-03-28T05:02:03.639Z,6.00
2018-03-28T05:04:31.199Z,6.00
2018-03-28T05:06:58.675Z,6.00
2018-03-28T05:09:26.209Z,6.00
2018-03-28T05:11:53.768Z,6.00
2018-03-28T05:14:21.251Z,6.00
2018-03-28T05:16:49.525Z,6.00
2018-03-28T05:19:17.797Z,6.00
2018-03-28T05:21:45.395Z,6.00
2018-03-28T05:24:12.876Z,6.00
2018-03-28T05:26:41.141Z,6.00
2018-03-28T05:29:09.459Z,6.00
2018-03-28T05:31:36.958Z,6.00
2018-03-28T05:34:04.447Z,6.10
2018-03-28T05:36:32.718Z,6.10
2018-03-28T05:39:01.033Z,6.10
2018-03-28T05:41:28.523Z,6.10
2018-03-28T05:43:56.017Z,6.10
2018-03-28T05:46:23.484Z,6.10
2018-03-28T05:48:51.808Z,6.20
2018-03-28T05:51:19.943Z,6.10
2018-03-28T05:53:48.217Z,6.20
2018-03-28T05:56:15.724Z,6.20
2018-03-28T05:58:43.993Z,6.20
2018-03-28T06:01:11.502Z,6.20
2018-03-28T06:03:38.990Z,6.20
2018-03-28T06:06:06.487Z,6.20
2018-03-28T06:08:33.981Z,6.30
2018-03-28T06:11:01.744Z,6.30
2018-03-28T06:13:29.980Z,6.30
2018-03-28T06:15:58.262Z,6.30
2018-03-28T06:18:25.772Z,6.30
2018-03-28T06:20:53.288Z,6.30
2018-03-28T06:23:20.830Z,6.40
2018-03-28T06:25:48.346Z,6.40
2018-03-28T06:28:15.960Z,6.40
2018-03-28T06:30:43.482Z,6.40
2018-03-28T06:33:10.923Z,6.40
2018-03-28T06:35:38.392Z,6.50
2018-03-28T06:38:05.870Z,6.50
2018-03-28T06:40:33.356Z,6.50
2018-03-28T06:43:00.864Z,6.60
2018-03-28T06:45:28.349Z,6.60
2018-03-28T06:47:56.648Z,6.60
2018-03-28T06:50:24.764Z,6.60
2018-03-28T06:52:52.282Z,6.60
2018-03-28T06:55:19.838Z,6.70
2018-03-28T06:57:48.146Z,6.70
2018-03-28T07:00:15.614Z,6.70
2018-03-28T07:02:43.090Z,6.70
2018-03-28T07:05:10.620Z,6.80
2018-03-28T07:07:38.151Z,6.80
2018-03-28T07:10:06.763Z,6.80
2018-03-28T07:12:34.262Z,6.80
2018-03-28T07:15:02.580Z,6.90
2018-03-28T07:17:30.115Z,6.90
2018-03-28T07:19:57.626Z,6.90
2018-03-28T07:22:25.234Z,7.00
2018-03-28T07:24:52.714Z,7.00
2018-03-28T07:27:20.184Z,7.00
2018-03-28T07:29:47.925Z,7.10
2018-03-28T07:32:15.405Z,7.20
2018-03-28T07:34:42.874Z,7.20
2018-03-28T07:37:10.418Z,7.30
2018-03-28T07:39:37.898Z,7.30
2018-03-28T07:42:05.374Z,7.30
2018-03-28T07:44:32.869Z,7.30
2018-03-28T07:47:01.138Z,7.40
2018-03-28T07:49:29.396Z,7.50
2018-03-28T07:51:56.984Z,7.50
2018-03-28T07:54:25.221Z,7.60
2018-03-28T07:56:53.516Z,7.70
2018-03-28T07:59:20.997Z,7.70
2018-03-28T08:01:48.541Z,7.80
2018-03-28T08:04:16.206Z,7.80
2018-03-28T08:06:43.767Z,7.90
2018-03-28T08:09:11.266Z,7.90
2018-03-28T08:11:38.789Z,8.00
2018-03-28T08:14:06.320Z,8.00
2018-03-28T08:16:33.832Z,8.10
2018-03-28T08:19:01.360Z,8.10
2018-03-28T08:21:28.859Z,8.20
2018-03-28T08:23:56.365Z,8.20
2018-03-28T08:26:23.822Z,8.10
2018-03-28T08:28:51.376Z,8.10
2018-03-28T08:31:18.847Z,8.10
2018-03-28T08:33:46.496Z,8.20
2018-03-28T08:36:13.977Z,8.20
2018-03-28T08:38:41.456Z,8.20
2018-03-28T08:41:08.942Z,8.20
2018-03-28T08:43:37.259Z,8.50
2018-03-28T08:46:05.572Z,8.50
2018-03-28T08:48:33.821Z,8.70
2018-03-28T08:51:01.420Z,8.80
2018-03-28T08:53:28.905Z,8.90
2018-03-28T08:55:56.449Z,8.90
2018-03-28T08:58:24.111Z,8.90
2018-03-28T09:00:51.830Z,8.80
2018-03-28T09:03:19.331Z,8.70
2018-03-28T09:05:46.847Z,8.60
2018-03-28T09:08:14.385Z,8.40
2018-03-28T09:10:41.940Z,8.30
2018-03-28T09:13:09.504Z,8.30
2018-03-28T09:15:37.063Z,8.30
2018-03-28T09:18:04.672Z,8.30
2018-03-28T09:20:32.133Z,8.40
2018-03-28T09:22:59.603Z,8.40
2018-03-28T09:25:27.095Z,8.40
2018-03-28T09:27:54.831Z,8.50
2018-03-28T09:30:22.339Z,8.70
2018-03-28T09:32:50.659Z,8.70
2018-03-28T09:35:18.149Z,8.70
2018-03-28T09:37:45.697Z,8.70
2018-03-28T09:40:13.257Z,8.70
2018-03-28T09:42:40.743Z,8.80
2018-03-28T09:45:08.276Z,8.90
2018-03-28T09:47:35.826Z,9.00
2018-03-28T09:50:03.349Z,9.20
2018-03-28T09:52:31.617Z,9.60
2018-03-28T09:54:59.927Z,9.60
2018-03-28T09:57:27.437Z,9.70
2018-03-28T09:59:55.956Z,9.90
2018-03-28T10:02:29.071Z,9.80
2018-03-28T10:04:59.471Z,10.00
2018-03-28T10:07:26.947Z,9.90
2018-03-28T10:09:54.409Z,9.90
2018-03-28T10:12:21.961Z,9.80
2018-03-28T10:14:49.444Z,9.70
2018-03-28T10:17:16.956Z,9.80
2018-03-28T10:19:44.507Z,9.90
2018-03-28T10:22:12.021Z,10.20
2018-03-28T10:24:40.296Z,10.20
2018-03-28T10:27:07.882Z,10.20
2018-03-28T10:29:35.444Z,10.20
2018-03-28T10:32:03.395Z,10.10
2018-03-28T10:34:31.381Z,10.00
2018-03-28T10:36:58.861Z,10.10
2018-03-28T10:39:26.342Z,10.10
2018-03-28T10:41:53.834Z,10.10
2018-03-28T10:44:21.417Z,10.20
2018-03-28T10:46:48.950Z,10.20
2018-03-28T10:49:16.482Z,9.80
2018-03-28T10:51:44.483Z,10.30
2018-03-28T10:54:12.266Z,10.30
2018-03-28T10:56:39.849Z,10.40
2018-03-28T10:59:07.350Z,10.60
2018-03-28T11:01:34.862Z,10.70
2018-03-28T11:04:02.426Z,10.90
2018-03-28T11:06:30.078Z,11.10
2018-03-28T11:08:57.608Z,11.20
2018-03-28T11:11:25.848Z,11.20
2018-03-28T11:13:53.368Z,11.20
2018-03-28T11:16:20.841Z,11.20
2018-03-28T11:18:50.073Z,11.30
2018-03-28T11:21:17.587Z,11.30
2018-03-28T11:23:45.842Z,11.30
2018-03-28T11:26:13.370Z,11.30
2018-03-28T11:28:40.946Z,11.30
2018-03-28T11:31:08.452Z,11.40
2018-03-28T11:33:36.476Z,11.40
2018-03-28T11:36:04.714Z,11.40
2018-03-28T11:38:32.194Z,11.40
2018-03-28T11:41:00.462Z,11.50
2018-03-28T11:43:28.776Z,11.60
2018-03-28T11:45:57.171Z,11.60
2018-03-28T11:48:24.651Z,11.70
2018-03-28T11:50:52.921Z,11.70
2018-03-28T11:53:21.155Z,11.80
2018-03-28T11:55:48.625Z,11.70
2018-03-28T11:58:16.134Z,11.90
2018-03-28T12:00:43.648Z,12.10
2018-03-28T12:03:11.975Z,12.40
2018-03-28T12:05:39.461Z,12.40
2018-03-28T12:08:06.991Z,12.50
2018-03-28T12:10:34.665Z,12.60
2018-03-28T12:13:02.223Z,12.70
2018-03-28T12:15:29.724Z,12.80
2018-03-28T12:17:57.352Z,12.80
2018-03-28T12:20:24.847Z,12.70
2018-03-28T12:22:52.371Z,12.60
2018-03-28T12:25:19.869Z,12.50
2018-03-28T12:27:48.230Z,12.40
2018-03-28T12:30:16.389Z,12.30
2018-03-28T12:32:43.874Z,12.30
2018-03-28T12:35:11.369Z,12.20
2018-03-28T12:37:38.987Z,12.10
2018-03-28T12:40:06.585Z,12.00
2018-03-28T12:42:34.110Z,11.90
2018-03-28T12:45:01.626Z,12.10
2018-03-28T12:47:29.134Z,12.20
2018-03-28T12:49:56.731Z,12.40
2018-03-28T12:52:24.261Z,12.60
2018-03-28T12:54:51.756Z,12.80
2018-03-28T12:57:19.300Z,12.90
2018-03-28T12:59:46.823Z,13.00
2018-03-28T13:02:14.331Z,13.00
2018-03-28T13:04:41.814Z,12.90
2018-03-28T13:07:09.319Z,12.70
2018-03-28T13:09:36.881Z,12.60
2018-03-28T13:12:04.346Z,12.40
2018-03-28T13:14:31.831Z,12.20
2018-03-28T13:16:59.447Z,12.00
2018-03-28T13:19:26.951Z,12.00
2018-03-28T13:21:54.449Z,11.90
2018-03-28T13:24:21.932Z,12.00
2018-03-28T13:26:50.195Z,12.20
2018-03-28T13:29:18.466Z,12.30
2018-03-28T13:31:46.740Z,12.40
2018-03-28T13:34:14.219Z,12.40
2018-03-28T13:36:41.688Z,12.40
2018-03-28T13:39:09.971Z,12.40
2018-03-28T13:41:37.531Z,12.30
2018-03-28T13:44:04.995Z,12.40
2018-03-28T13:46:32.508Z,12.50
2018-03-28T13:49:00.001Z,12.60
2018-03-28T13:51:27.470Z,12.70
2018-03-28T13:53:55.078Z,13.00
2018-03-28T13:56:22.630Z,13.10
2018-03-28T13:58:50.191Z,13.10
2018-03-28T14:01:17.717Z,13.20
2018-03-28T14:03:46.025Z,13.30
2018-03-28T14:06:13.500Z,13.20
2018-03-28T14:08:41.039Z,13.30
2018-03-28T14:11:08.563Z,13.40
2018-03-28T14:13:36.145Z,13.50
2018-03-28T14:16:03.742Z,13.50
2018-03-28T14:18:32.053Z,13.30
2018-03-28T14:20:59.551Z,13.30
2018-03-28T14:23:27.025Z,13.10
2018-03-28T14:25:54.551Z,13.00
2018-03-28T14:28:22.013Z,12.90
2018-03-28T14:30:49.725Z,12.80
2018-03-28T14:33:17.289Z,12.70
2018-03-28T14:35:44.825Z,12.50
2018-03-28T14:38:13.069Z,12.20
2018-03-28T14:40:40.620Z,12.20
2018-03-28T14:43:08.107Z,12.00
2018-03-28T14:45:35.584Z,12.00
2018-03-28T14:48:03.214Z,11.80
2018-03-28T14:50:30.699Z,11.70
2018-03-28T14:52:58.240Z,11.70
2018-03-28T14:55:25.768Z,11.60
2018-03-28T14:57:53.277Z,11.50
2018-03-28T15:00:21.514Z,11.50
2018-03-28T15:02:49.052Z,11.40
2018-03-28T15:05:16.574Z,11.40
2018-03-28T15:07:44.222Z,11.40
2018-03-28T15:10:11.756Z,11.40
2018-03-28T15:12:40.162Z,11.30
2018-03-28T15:15:07.722Z,11.30
2018-03-28T15:17:35.247Z,11.30
2018-03-28T15:20:02.803Z,11.30
2018-03-28T15:22:30.357Z,11.30
2018-03-28T15:24:57.862Z,11.30
2018-03-28T15:27:25.374Z,11.30
2018-03-28T15:29:52.903Z,11.20
2018-03-28T15:32:21.200Z,11.20
2018-03-28T15:34:48.694Z,11.20
2018-03-28T15:37:16.204Z,11.20
2018-03-28T15:39:43.708Z,11.10
2018-03-28T15:42:12.035Z,11.00
2018-03-28T15:44:39.591Z,11.00
2018-03-28T15:47:07.142Z,10.90
2018-03-28T15:49:34.760Z,10.90
2018-03-28T15:52:02.424Z,10.80
2018-03-28T15:54:29.937Z,10.70
2018-03-28T15:56:57.470Z,10.70
2018-03-28T15:59:24.948Z,10.60
2018-03-28T16:01:52.462Z,10.50
2018-03-28T16:04:20.733Z,10.40
2018-03-28T16:06:48.268Z,10.40
2018-03-28T16:09:15.772Z,10.40
2018-03-28T16:11:43.288Z,10.30
2018-03-28T16:14:10.780Z,10.30
2018-03-28T16:16:38.334Z,10.20
2018-03-28T16:19:05.830Z,10.20
2018-03-28T16:21:33.346Z,10.10
2018-03-28T16:24:00.808Z,10.00
2018-03-28T16:26:28.336Z,10.00
2018-03-28T16:28:55.895Z,9.90
2018-03-28T16:31:23.401Z,9.80
2018-03-28T16:33:50.884Z,9.80
2018-03-28T16:36:18.436Z,9.70
2018-03-28T16:38:45.924Z,9.60
2018-03-28T16:41:13.384Z,9.50
2018-03-28T16:43:40.900Z,9.50
2018-03-28T16:46:08.446Z,9.50
2018-03-28T16:48:35.919Z,9.40
2018-03-28T16:51:04.168Z,9.30
2018-03-28T16:53:31.648Z,9.30
2018-03-28T16:55:59.185Z,9.30
2018-03-28T16:58:27.500Z,9.20
2018-03-28T17:00:55.807Z,9.20
2018-03-28T17:03:23.471Z,9.10
2018-03-28T17:05:50.958Z,9.10
2018-03-28T17:08:19.216Z,9.00
2018-03-28T17:10:47.647Z,9.00
2018-03-28T17:13:15.132Z,9.00
2018-03-28T17:15:42.654Z,8.90
2018-03-28T17:18:22.810Z,8.90
2018-03-28T17:20:51.082Z,8.90
2018-03-28T17:23:19.381Z,8.90
2018-03-28T17:25:46.948Z,8.80
2018-03-28T17:28:14.517Z,8.80
2018-03-28T17:30:42.071Z,8.80
2018-03-28T17:33:09.576Z,8.80
2018-03-28T17:35:37.053Z,8.70
2018-03-28T17:38:04.547Z,8.70
2018-03-28T17:40:32.061Z,8.70
2018-03-28T17:42:59.620Z,8.70
2018-03-28T17:45:27.082Z,8.70
2018-03-28T17:47:54.649Z,8.70
2018-03-28T17:50:22.208Z,8.60
2018-03-28T17:52:49.877Z,8.60
2018-03-28T17:55:17.369Z,8.60
2018-03-28T17:57:45.640Z,8.60
2018-03-28T18:00:13.949Z,8.60
2018-03-28T18:02:41.425Z,8.60
2018-03-28T18:05:08.963Z,8.60
2018-03-28T18:07:36.459Z,8.60
2018-03-28T18:10:03.975Z,8.50
2018-03-28T18:12:31.477Z,8.50
2018-03-28T18:14:58.971Z,8.50
2018-03-28T18:17:26.459Z,8.50
2018-03-28T18:19:53.962Z,8.50
2018-03-28T18:22:22.220Z,8.50
2018-03-28T18:24:49.708Z,8.50
2018-03-28T18:27:17.268Z,8.50
2018-03-28T18:29:44.764Z,8.50
2018-03-28T18:32:12.296Z,8.50
2018-03-28T18:34:39.777Z,8.50
2018-03-28T18:37:08.030Z,8.50
2018-03-28T18:39:36.329Z,8.50
2018-03-28T18:42:03.832Z,8.50
2018-03-28T18:44:31.332Z,8.50
2018-03-28T18:46:58.807Z,8.50
2018-03-28T18:49:26.294Z,8.50
2018-03-28T18:51:53.773Z,8.60
2018-03-28T18:54:22.189Z,8.60
2018-03-28T18:56:50.496Z,8.60
2018-03-28T18:59:18.001Z,8.50
2018-03-28T19:01:45.511Z,8.60
2018-03-28T19:04:13.017Z,8.60
2018-03-28T19:06:40.549Z,8.60
2018-03-28T19:09:08.038Z,8.60
2018-03-28T19:11:35.561Z,8.60
2018-03-28T19:14:03.024Z,8.60
2018-03-28T19:16:31.027Z,8.70
2018-03-28T19:18:58.484Z,8.60
2018-03-28T19:21:26.157Z,8.70
2018-03-28T19:23:53.675Z,8.70
2018-03-28T19:26:21.247Z,8.70
2018-03-28T19:28:49.198Z,8.70
2018-03-28T19:31:16.691Z,8.70
2018-03-28T19:33:44.975Z,8.70
2018-03-28T19:36:12.435Z,8.70
2018-03-28T19:38:39.872Z,8.70
2018-03-28T19:41:07.340Z,8.70
2018-03-28T19:43:34.854Z,8.70
2018-03-28T19:46:02.621Z,8.80
2018-03-28T19:48:30.065Z,8.80
2018-03-28T19:50:58.292Z,8.80
2018-03-28T19:53:25.762Z,8.80
2018-03-28T19:55:53.223Z,8.80
2018-03-28T19:58:20.680Z,8.80
2018-03-28T20:00:48.237Z,8.80
2018-03-28T20:03:15.749Z,8.80
2018-03-28T20:05:43.354Z,8.80
2018-03-28T20:08:10.848Z,8.70
2018-03-28T20:10:38.318Z,8.70
2018-03-28T20:13:05.822Z,8.70
2018-03-28T20:15:33.304Z,8.70
2018-03-28T20:18:00.793Z,8.70
2018-03-28T20:20:29.034Z,8.60
2018-03-28T20:22:56.522Z,8.60
2018-03-28T20:25:24.043Z,8.60
2018-03-28T20:27:51.563Z,8.60
2018-03-28T20:30:19.877Z,8.60
2018-03-28T20:32:47.356Z,8.60
2018-03-28T20:35:14.832Z,8.60
2018-03-28T20:37:42.312Z,8.60
2018-03-28T20:40:09.811Z,8.60
2018-03-28T20:42:37.456Z,8.60
2018-03-28T20:45:05.034Z,8.60
2018-03-28T20:47:32.505Z,8.60
2018-03-28T20:49:59.978Z,8.60
2018-03-28T20:52:27.467Z,8.60
2018-03-28T20:54:55.725Z,8.70
2018-03-28T20:57:23.226Z,8.60
2018-03-28T20:59:50.823Z,8.70
2018-03-28T21:02:18.359Z,8.70
2018-03-28T21:04:45.867Z,8.70
2018-03-28T21:07:13.443Z,8.70
2018-03-28T21:09:40.909Z,8.70
2018-03-28T21:12:08.377Z,8.70
2018-03-28T21:14:35.917Z,8.60
2018-03-28T21:17:03.486Z,8.60
2018-03-28T21:19:31.045Z,8.60
2018-03-28T21:21:58.554Z,8.60
2018-03-28T21:24:26.085Z,8.60
2018-03-28T21:26:53.587Z,8.60
2018-03-28T21:29:22.005Z,8.60
2018-03-28T21:31:50.199Z,8.60
2018-03-28T21:34:17.737Z,8.60
2018-03-28T21:36:45.251Z,8.60
2018-03-28T21:39:12.736Z,8.60
2018-03-28T21:41:40.285Z,8.60
2018-03-28T21:44:07.779Z,8.60
2018-03-28T21:46:35.271Z,8.60
2018-03-28T21:49:02.849Z,8.60
2018-03-28T21:51:30.425Z,8.60
2018-03-28T21:53:58.051Z,8.60
2018-03-28T21:56:25.583Z,8.60
2018-03-28T21:58:53.023Z,8.60
2018-03-28T22:01:20.596Z,8.60
2018-03-28T22:03:48.157Z,8.60
2018-03-28T22:06:15.725Z,8.60
2018-03-28T22:08:43.981Z,8.60
2018-03-28T22:11:12.182Z,8.60
2018-03-28T22:13:40.443Z,8.50
2018-03-28T22:16:07.894Z,8.50
2018-03-28T22:18:35.401Z,8.50
2018-03-28T22:21:02.922Z,8.50
2018-03-28T22:23:30.388Z,8.50
2018-03-28T22:25:57.931Z,8.50
2018-03-28T22:28:25.681Z,8.50
2018-03-28T22:30:53.671Z,8.50
2018-03-28T22:33:21.147Z,8.50
2018-03-28T22:35:48.660Z,8.50
2018-03-28T22:38:16.214Z,8.50
2018-03-28T22:40:43.773Z,8.50
2018-03-28T22:43:11.231Z,8.50
2018-03-28T22:45:38.719Z,8.60
2018-03-28T22:48:06.166Z,8.60
2018-03-28T22:50:33.791Z,8.50
2018-03-28T22:53:01.266Z,8.50
2018-03-28T22:55:28.751Z,8.40
2018-03-28T22:57:56.228Z,8.40
2018-03-28T23:00:24.618Z,8.30
2018-03-28T23:02:52.895Z,8.30
2018-03-28T23:05:21.130Z,8.30
2018-03-28T23:07:49.442Z,8.20
2018-03-28T23:10:16.896Z,8.20
2018-03-28T23:12:44.421Z,8.20
2018-03-28T23:15:12.639Z,8.30
2018-03-28T23:17:40.127Z,8.30
2018-03-28T23:20:08.064Z,8.30
2018-03-28T23:22:38.331Z,8.30
2018-03-28T23:25:06.549Z,8.30
2018-03-28T23:27:34.049Z,8.30
2018-03-28T23:30:02.359Z,8.40
2018-03-28T23:32:29.819Z,8.30
2018-03-28T23:34:57.324Z,8.40
2018-03-28T23:37:24.818Z,8.40
2018-03-28T23:39:52.302Z,8.40
2018-03-28T23:42:19.855Z,8.40
2018-03-28T23:44:48.077Z,8.40
2018-03-28T23:47:15.558Z,8.30
2018-03-28T23:49:43.042Z,8.30
2018-03-28T23:52:10.554Z,8.30
2018-03-28T23:54:38.044Z,8.30
2018-03-28T23:57:05.638Z,8.30
2018-03-28T23:59:33.138Z,8.20
